sensor_id;sensor_type;location;lat;lon;timestamp;P1;durP1;ratioP1;P2;durP2;ratioP2
51883;SDS011;37915;53.254;6.598;2023-04-24T00:00:25;9.30;;;5.20;;
51883;SDS011;37915;53.254;6.598;2023-04-24T00:02:50;7.05;;;5.18;;
51883;SDS011;37915;53.254;6.598;2023-04-24T00:05:16;8.23;;;4.85;;
51883;SDS011;37915;53.254;6.598;2023-04-24T00:07:43;8.52;;;5.57;;
51883;SDS011;37915;53.254;6.598;2023-04-24T00:10:10;8.23;;;5.10;;
51883;SDS011;37915;53.254;6.598;2023-04-24T00:12:36;9.05;;;5.85;;
51883;SDS011;37915;53.254;6.598;2023-04-24T00:15:02;10.25;;;5.53;;
51883;SDS011;37915;53.254;6.598;2023-04-24T00:17:29;8.43;;;5.80;;
51883;SDS011;37915;53.254;6.598;2023-04-24T00:19:55;9.35;;;5.75;;
51883;SDS011;37915;53.254;6.598;2023-04-24T00:22:24;9.88;;;5.28;;
51883;SDS011;37915;53.254;6.598;2023-04-24T00:24:50;8.98;;;6.00;;
51883;SDS011;37915;53.254;6.598;2023-04-24T00:27:16;7.97;;;5.85;;
51883;SDS011;37915;53.254;6.598;2023-04-24T00:29:42;10.30;;;5.93;;
51883;SDS011;37915;53.254;6.598;2023-04-24T00:32:07;9.65;;;5.55;;
51883;SDS011;37915;53.254;6.598;2023-04-24T00:34:33;8.70;;;5.00;;
51883;SDS011;37915;53.254;6.598;2023-04-24T00:36:59;6.78;;;4.13;;
51883;SDS011;37915;53.254;6.598;2023-04-24T00:39:24;7.93;;;4.72;;
51883;SDS011;37915;53.254;6.598;2023-04-24T00:41:50;6.38;;;3.95;;
51883;SDS011;37915;53.254;6.598;2023-04-24T00:44:16;5.15;;;3.00;;
51883;SDS011;37915;53.254;6.598;2023-04-24T00:46:42;5.68;;;2.75;;
51883;SDS011;37915;53.254;6.598;2023-04-24T00:49:08;4.68;;;2.83;;
51883;SDS011;37915;53.254;6.598;2023-04-24T00:51:33;4.20;;;2.28;;
51883;SDS011;37915;53.254;6.598;2023-04-24T00:53:59;4.55;;;2.60;;
51883;SDS011;37915;53.254;6.598;2023-04-24T00:56:26;3.90;;;2.10;;
51883;SDS011;37915;53.254;6.598;2023-04-24T00:58:52;3.33;;;2.10;;
51883;SDS011;37915;53.254;6.598;2023-04-24T01:01:21;4.63;;;2.30;;
51883;SDS011;37915;53.254;6.598;2023-04-24T01:03:50;3.92;;;2.10;;
51883;SDS011;37915;53.254;6.598;2023-04-24T01:06:18;3.70;;;2.03;;
51883;SDS011;37915;53.254;6.598;2023-04-24T01:08:45;5.30;;;2.55;;
51883;SDS011;37915;53.254;6.598;2023-04-24T01:11:12;3.47;;;2.00;;
51883;SDS011;37915;53.254;6.598;2023-04-24T01:13:38;3.30;;;2.00;;
51883;SDS011;37915;53.254;6.598;2023-04-24T01:16:05;3.50;;;1.88;;
51883;SDS011;37915;53.254;6.598;2023-04-24T01:18:30;3.28;;;1.70;;
51883;SDS011;37915;53.254;6.598;2023-04-24T01:20:59;3.10;;;1.70;;
51883;SDS011;37915;53.254;6.598;2023-04-24T01:23:28;3.55;;;1.73;;
51883;SDS011;37915;53.254;6.598;2023-04-24T01:25:54;3.50;;;1.60;;
51883;SDS011;37915;53.254;6.598;2023-04-24T01:28:20;3.72;;;1.60;;
51883;SDS011;37915;53.254;6.598;2023-04-24T01:30:46;2.55;;;1.52;;
51883;SDS011;37915;53.254;6.598;2023-04-24T01:33:12;2.65;;;1.30;;
51883;SDS011;37915;53.254;6.598;2023-04-24T01:35:38;2.65;;;1.67;;
51883;SDS011;37915;53.254;6.598;2023-04-24T01:38:04;3.35;;;1.13;;
51883;SDS011;37915;53.254;6.598;2023-04-24T01:40:30;4.60;;;1.60;;
51883;SDS011;37915;53.254;6.598;2023-04-24T01:42:57;2.40;;;1.35;;
51883;SDS011;37915;53.254;6.598;2023-04-24T01:45:23;4.32;;;1.30;;
51883;SDS011;37915;53.254;6.598;2023-04-24T01:47:49;2.63;;;1.40;;
51883;SDS011;37915;53.254;6.598;2023-04-24T01:50:16;3.00;;;1.70;;
51883;SDS011;37915;53.254;6.598;2023-04-24T01:52:42;3.90;;;1.52;;
51883;SDS011;37915;53.254;6.598;2023-04-24T01:55:08;2.45;;;1.50;;
51883;SDS011;37915;53.254;6.598;2023-04-24T01:57:34;2.60;;;1.38;;
51883;SDS011;37915;53.254;6.598;2023-04-24T02:00:01;4.32;;;1.73;;
51883;SDS011;37915;53.254;6.598;2023-04-24T02:02:29;2.90;;;1.48;;
51883;SDS011;37915;53.254;6.598;2023-04-24T02:04:55;3.65;;;1.88;;
51883;SDS011;37915;53.254;6.598;2023-04-24T02:07:21;2.92;;;1.90;;
51883;SDS011;37915;53.254;6.598;2023-04-24T02:09:47;3.63;;;1.92;;
51883;SDS011;37915;53.254;6.598;2023-04-24T02:12:13;3.30;;;2.05;;
51883;SDS011;37915;53.254;6.598;2023-04-24T02:14:39;3.33;;;2.03;;
51883;SDS011;37915;53.254;6.598;2023-04-24T02:17:07;3.40;;;2.08;;
51883;SDS011;37915;53.254;6.598;2023-04-24T02:19:33;3.60;;;2.17;;
51883;SDS011;37915;53.254;6.598;2023-04-24T02:21:58;3.10;;;1.85;;
51883;SDS011;37915;53.254;6.598;2023-04-24T02:24:24;3.78;;;2.50;;
51883;SDS011;37915;53.254;6.598;2023-04-24T02:26:50;4.72;;;2.80;;
51883;SDS011;37915;53.254;6.598;2023-04-24T02:29:15;5.07;;;2.45;;
51883;SDS011;37915;53.254;6.598;2023-04-24T02:31:41;4.47;;;2.60;;
51883;SDS011;37915;53.254;6.598;2023-04-24T02:34:07;4.93;;;3.20;;
51883;SDS011;37915;53.254;6.598;2023-04-24T02:36:32;4.40;;;3.05;;
51883;SDS011;37915;53.254;6.598;2023-04-24T02:38:58;6.75;;;3.40;;
51883;SDS011;37915;53.254;6.598;2023-04-24T02:41:24;4.32;;;2.97;;
51883;SDS011;37915;53.254;6.598;2023-04-24T02:43:50;7.95;;;3.42;;
51883;SDS011;37915;53.254;6.598;2023-04-24T02:46:15;5.68;;;3.60;;
51883;SDS011;37915;53.254;6.598;2023-04-24T02:48:41;5.53;;;3.95;;
51883;SDS011;37915;53.254;6.598;2023-04-24T02:51:07;5.00;;;3.70;;
51883;SDS011;37915;53.254;6.598;2023-04-24T02:53:32;6.53;;;4.45;;
51883;SDS011;37915;53.254;6.598;2023-04-24T02:55:58;6.03;;;3.70;;
51883;SDS011;37915;53.254;6.598;2023-04-24T02:58:24;6.03;;;4.25;;
51883;SDS011;37915;53.254;6.598;2023-04-24T03:00:53;7.13;;;4.20;;
51883;SDS011;37915;53.254;6.598;2023-04-24T03:03:20;6.28;;;4.40;;
51883;SDS011;37915;53.254;6.598;2023-04-24T03:05:46;6.63;;;4.65;;
51883;SDS011;37915;53.254;6.598;2023-04-24T03:08:12;6.22;;;4.38;;
51883;SDS011;37915;53.254;6.598;2023-04-24T03:10:37;5.65;;;4.15;;
51883;SDS011;37915;53.254;6.598;2023-04-24T03:13:03;5.78;;;4.07;;
51883;SDS011;37915;53.254;6.598;2023-04-24T03:15:29;6.05;;;4.07;;
51883;SDS011;37915;53.254;6.598;2023-04-24T03:17:54;6.18;;;4.43;;
51883;SDS011;37915;53.254;6.598;2023-04-24T03:20:20;7.88;;;4.43;;
51883;SDS011;37915;53.254;6.598;2023-04-24T03:22:46;6.65;;;4.70;;
51883;SDS011;37915;53.254;6.598;2023-04-24T03:25:12;6.32;;;4.57;;
51883;SDS011;37915;53.254;6.598;2023-04-24T03:27:37;5.13;;;4.00;;
51883;SDS011;37915;53.254;6.598;2023-04-24T03:30:04;6.53;;;4.82;;
51883;SDS011;37915;53.254;6.598;2023-04-24T03:32:33;8.30;;;5.32;;
51883;SDS011;37915;53.254;6.598;2023-04-24T03:34:59;8.00;;;5.93;;
51883;SDS011;37915;53.254;6.598;2023-04-24T03:37:25;7.28;;;5.63;;
51883;SDS011;37915;53.254;6.598;2023-04-24T03:39:51;8.35;;;5.88;;
51883;SDS011;37915;53.254;6.598;2023-04-24T03:42:17;6.80;;;4.78;;
51883;SDS011;37915;53.254;6.598;2023-04-24T03:44:43;8.55;;;5.88;;
51883;SDS011;37915;53.254;6.598;2023-04-24T03:47:09;7.05;;;5.53;;
51883;SDS011;37915;53.254;6.598;2023-04-24T03:49:34;8.23;;;6.20;;
51883;SDS011;37915;53.254;6.598;2023-04-24T03:52:00;9.35;;;6.90;;
51883;SDS011;37915;53.254;6.598;2023-04-24T03:54:26;9.18;;;7.10;;
51883;SDS011;37915;53.254;6.598;2023-04-24T03:56:52;8.75;;;6.63;;
51883;SDS011;37915;53.254;6.598;2023-04-24T03:59:17;10.43;;;7.75;;
51883;SDS011;37915;53.254;6.598;2023-04-24T04:01:43;10.45;;;8.13;;
51883;SDS011;37915;53.254;6.598;2023-04-24T04:04:10;9.73;;;7.65;;
51883;SDS011;37915;53.254;6.598;2023-04-24T04:06:36;10.15;;;8.25;;
51883;SDS011;37915;53.254;6.598;2023-04-24T04:09:02;11.75;;;9.00;;
51883;SDS011;37915;53.254;6.598;2023-04-24T04:11:28;11.50;;;8.65;;
51883;SDS011;37915;53.254;6.598;2023-04-24T04:13:54;11.43;;;7.60;;
51883;SDS011;37915;53.254;6.598;2023-04-24T04:16:21;12.73;;;8.95;;
51883;SDS011;37915;53.254;6.598;2023-04-24T04:18:47;11.75;;;8.15;;
51883;SDS011;37915;53.254;6.598;2023-04-24T04:21:13;13.00;;;10.40;;
51883;SDS011;37915;53.254;6.598;2023-04-24T04:23:39;12.95;;;9.10;;
51883;SDS011;37915;53.254;6.598;2023-04-24T04:26:05;12.43;;;9.27;;
51883;SDS011;37915;53.254;6.598;2023-04-24T04:28:30;14.40;;;9.32;;
51883;SDS011;37915;53.254;6.598;2023-04-24T04:30:57;11.00;;;8.35;;
51883;SDS011;37915;53.254;6.598;2023-04-24T04:33:23;15.48;;;9.63;;
51883;SDS011;37915;53.254;6.598;2023-04-24T04:35:50;14.60;;;10.82;;
51883;SDS011;37915;53.254;6.598;2023-04-24T04:38:21;12.63;;;9.57;;
51883;SDS011;37915;53.254;6.598;2023-04-24T04:40:47;10.98;;;8.50;;
51883;SDS011;37915;53.254;6.598;2023-04-24T04:43:13;10.07;;;8.35;;
51883;SDS011;37915;53.254;6.598;2023-04-24T04:45:40;12.93;;;8.63;;
51883;SDS011;37915;53.254;6.598;2023-04-24T04:48:07;13.40;;;8.75;;
51883;SDS011;37915;53.254;6.598;2023-04-24T04:50:34;11.35;;;8.57;;
51883;SDS011;37915;53.254;6.598;2023-04-24T04:53:00;9.20;;;7.03;;
51883;SDS011;37915;53.254;6.598;2023-04-24T04:55:26;7.88;;;6.60;;
51883;SDS011;37915;53.254;6.598;2023-04-24T04:57:52;10.00;;;7.25;;
51883;SDS011;37915;53.254;6.598;2023-04-24T05:00:18;9.50;;;6.90;;
51883;SDS011;37915;53.254;6.598;2023-04-24T05:02:44;8.75;;;6.03;;
51883;SDS011;37915;53.254;6.598;2023-04-24T05:05:10;7.65;;;5.72;;
51883;SDS011;37915;53.254;6.598;2023-04-24T05:07:35;8.18;;;6.07;;
51883;SDS011;37915;53.254;6.598;2023-04-24T05:10:01;7.38;;;5.30;;
51883;SDS011;37915;53.254;6.598;2023-04-24T05:12:27;6.93;;;5.00;;
51883;SDS011;37915;53.254;6.598;2023-04-24T05:14:53;7.28;;;5.00;;
51883;SDS011;37915;53.254;6.598;2023-04-24T05:17:18;9.93;;;4.90;;
51883;SDS011;37915;53.254;6.598;2023-04-24T05:19:44;7.63;;;5.07;;
51883;SDS011;37915;53.254;6.598;2023-04-24T05:22:11;8.30;;;5.13;;
51883;SDS011;37915;53.254;6.598;2023-04-24T05:24:37;7.05;;;4.38;;
51883;SDS011;37915;53.254;6.598;2023-04-24T05:27:03;6.60;;;4.10;;
51883;SDS011;37915;53.254;6.598;2023-04-24T05:29:30;7.10;;;4.47;;
51883;SDS011;37915;53.254;6.598;2023-04-24T05:31:56;8.75;;;4.20;;
51883;SDS011;37915;53.254;6.598;2023-04-24T05:34:22;7.03;;;3.72;;
51883;SDS011;37915;53.254;6.598;2023-04-24T05:36:48;6.75;;;3.92;;
51883;SDS011;37915;53.254;6.598;2023-04-24T05:39:15;8.15;;;3.85;;
51883;SDS011;37915;53.254;6.598;2023-04-24T05:41:41;6.60;;;3.90;;
51883;SDS011;37915;53.254;6.598;2023-04-24T05:44:07;9.38;;;4.30;;
51883;SDS011;37915;53.254;6.598;2023-04-24T05:46:33;9.18;;;5.05;;
51883;SDS011;37915;53.254;6.598;2023-04-24T05:48:58;8.88;;;4.05;;
51883;SDS011;37915;53.254;6.598;2023-04-24T05:51:24;7.25;;;4.32;;
51883;SDS011;37915;53.254;6.598;2023-04-24T05:53:51;8.85;;;4.20;;
51883;SDS011;37915;53.254;6.598;2023-04-24T05:56:17;7.32;;;4.45;;
51883;SDS011;37915;53.254;6.598;2023-04-24T05:58:43;9.85;;;4.75;;
51883;SDS011;37915;53.254;6.598;2023-04-24T06:01:10;7.50;;;4.60;;
51883;SDS011;37915;53.254;6.598;2023-04-24T06:03:37;7.32;;;4.65;;
51883;SDS011;37915;53.254;6.598;2023-04-24T06:06:04;7.88;;;4.50;;
51883;SDS011;37915;53.254;6.598;2023-04-24T06:08:31;6.38;;;3.90;;
51883;SDS011;37915;53.254;6.598;2023-04-24T06:10:56;6.45;;;3.63;;
51883;SDS011;37915;53.254;6.598;2023-04-24T06:13:22;6.28;;;4.07;;
51883;SDS011;37915;53.254;6.598;2023-04-24T06:15:48;8.32;;;3.95;;
51883;SDS011;37915;53.254;6.598;2023-04-24T06:18:13;6.97;;;4.20;;
51883;SDS011;37915;53.254;6.598;2023-04-24T06:20:39;6.50;;;4.13;;
51883;SDS011;37915;53.254;6.598;2023-04-24T06:23:05;7.28;;;4.63;;
51883;SDS011;37915;53.254;6.598;2023-04-24T06:25:30;11.40;;;5.45;;
51883;SDS011;37915;53.254;6.598;2023-04-24T06:27:56;8.60;;;4.93;;
51883;SDS011;37915;53.254;6.598;2023-04-24T06:30:22;7.18;;;4.80;;
51883;SDS011;37915;53.254;6.598;2023-04-24T06:32:48;6.40;;;4.28;;
51883;SDS011;37915;53.254;6.598;2023-04-24T06:35:14;8.07;;;4.32;;
51883;SDS011;37915;53.254;6.598;2023-04-24T06:37:41;7.90;;;3.92;;
51883;SDS011;37915;53.254;6.598;2023-04-24T06:40:07;6.72;;;3.90;;
51883;SDS011;37915;53.254;6.598;2023-04-24T06:42:33;7.50;;;4.10;;
51883;SDS011;37915;53.254;6.598;2023-04-24T06:45:00;11.18;;;4.57;;
51883;SDS011;37915;53.254;6.598;2023-04-24T06:47:26;7.43;;;4.45;;
51883;SDS011;37915;53.254;6.598;2023-04-24T06:49:51;9.70;;;3.95;;
51883;SDS011;37915;53.254;6.598;2023-04-24T06:52:17;9.65;;;4.05;;
51883;SDS011;37915;53.254;6.598;2023-04-24T06:54:43;6.85;;;3.88;;
51883;SDS011;37915;53.254;6.598;2023-04-24T06:57:09;8.05;;;3.63;;
51883;SDS011;37915;53.254;6.598;2023-04-24T06:59:35;7.93;;;3.40;;
51883;SDS011;37915;53.254;6.598;2023-04-24T07:02:01;3.78;;;1.88;;
51883;SDS011;37915;53.254;6.598;2023-04-24T07:04:28;3.35;;;1.45;;
51883;SDS011;37915;53.254;6.598;2023-04-24T07:06:54;3.97;;;1.70;;
51883;SDS011;37915;53.254;6.598;2023-04-24T07:09:23;3.50;;;1.25;;
51883;SDS011;37915;53.254;6.598;2023-04-24T07:11:50;4.30;;;1.83;;
51883;SDS011;37915;53.254;6.598;2023-04-24T07:14:16;4.50;;;2.05;;
51883;SDS011;37915;53.254;6.598;2023-04-24T07:16:42;3.50;;;1.90;;
51883;SDS011;37915;53.254;6.598;2023-04-24T07:19:08;4.90;;;2.53;;
51883;SDS011;37915;53.254;6.598;2023-04-24T07:21:34;6.10;;;2.20;;
51883;SDS011;37915;53.254;6.598;2023-04-24T07:24:00;4.78;;;1.95;;
51883;SDS011;37915;53.254;6.598;2023-04-24T07:26:26;7.85;;;2.33;;
51883;SDS011;37915;53.254;6.598;2023-04-24T07:28:53;4.35;;;1.75;;
51883;SDS011;37915;53.254;6.598;2023-04-24T07:31:20;4.10;;;1.75;;
51883;SDS011;37915;53.254;6.598;2023-04-24T07:33:46;5.30;;;2.20;;
51883;SDS011;37915;53.254;6.598;2023-04-24T07:36:11;8.18;;;2.67;;
51883;SDS011;37915;53.254;6.598;2023-04-24T07:38:44;9.73;;;2.65;;
51883;SDS011;37915;53.254;6.598;2023-04-24T07:41:11;8.27;;;3.42;;
51883;SDS011;37915;53.254;6.598;2023-04-24T07:43:37;8.48;;;3.25;;
51883;SDS011;37915;53.254;6.598;2023-04-24T07:46:03;6.93;;;3.38;;
51883;SDS011;37915;53.254;6.598;2023-04-24T07:48:29;8.02;;;3.05;;
51883;SDS011;37915;53.254;6.598;2023-04-24T07:50:54;7.07;;;3.20;;
51883;SDS011;37915;53.254;6.598;2023-04-24T07:53:20;4.53;;;2.80;;
51883;SDS011;37915;53.254;6.598;2023-04-24T07:55:46;7.22;;;3.25;;
51883;SDS011;37915;53.254;6.598;2023-04-24T07:58:12;8.20;;;2.97;;
51883;SDS011;37915;53.254;6.598;2023-04-24T08:00:37;9.65;;;3.63;;
51883;SDS011;37915;53.254;6.598;2023-04-24T08:03:03;7.13;;;3.28;;
51883;SDS011;37915;53.254;6.598;2023-04-24T08:05:29;8.40;;;5.00;;
51883;SDS011;37915;53.254;6.598;2023-04-24T08:07:54;10.32;;;5.70;;
51883;SDS011;37915;53.254;6.598;2023-04-24T08:10:23;10.93;;;5.65;;
51883;SDS011;37915;53.254;6.598;2023-04-24T08:12:49;8.85;;;5.47;;
51883;SDS011;37915;53.254;6.598;2023-04-24T08:15:15;13.40;;;6.93;;
51883;SDS011;37915;53.254;6.598;2023-04-24T08:17:44;14.32;;;8.13;;
51883;SDS011;37915;53.254;6.598;2023-04-24T08:20:10;18.27;;;9.80;;
51883;SDS011;37915;53.254;6.598;2023-04-24T08:22:40;17.52;;;10.38;;
51883;SDS011;37915;53.254;6.598;2023-04-24T08:25:06;18.30;;;10.02;;
51883;SDS011;37915;53.254;6.598;2023-04-24T08:27:33;17.40;;;10.32;;
51883;SDS011;37915;53.254;6.598;2023-04-24T08:29:58;21.17;;;9.88;;
51883;SDS011;37915;53.254;6.598;2023-04-24T08:32:25;20.20;;;10.45;;
51883;SDS011;37915;53.254;6.598;2023-04-24T08:34:54;15.20;;;9.27;;
51883;SDS011;37915;53.254;6.598;2023-04-24T08:37:21;21.70;;;10.77;;
51883;SDS011;37915;53.254;6.598;2023-04-24T08:39:47;20.55;;;9.93;;
51883;SDS011;37915;53.254;6.598;2023-04-24T08:42:17;18.50;;;10.27;;
51883;SDS011;37915;53.254;6.598;2023-04-24T08:44:44;18.35;;;9.75;;
51883;SDS011;37915;53.254;6.598;2023-04-24T08:47:10;16.40;;;9.00;;
51883;SDS011;37915;53.254;6.598;2023-04-24T08:49:37;22.63;;;9.25;;
51883;SDS011;37915;53.254;6.598;2023-04-24T08:52:04;17.65;;;8.52;;
51883;SDS011;37915;53.254;6.598;2023-04-24T08:54:31;17.25;;;9.35;;
51883;SDS011;37915;53.254;6.598;2023-04-24T08:56:59;15.90;;;9.63;;
51883;SDS011;37915;53.254;6.598;2023-04-24T08:59:26;14.32;;;9.85;;
51883;SDS011;37915;53.254;6.598;2023-04-24T09:01:53;17.20;;;9.98;;
51883;SDS011;37915;53.254;6.598;2023-04-24T09:04:20;21.80;;;10.60;;
51883;SDS011;37915;53.254;6.598;2023-04-24T09:06:49;15.52;;;9.80;;
51883;SDS011;37915;53.254;6.598;2023-04-24T09:09:22;15.77;;;9.30;;
51883;SDS011;37915;53.254;6.598;2023-04-24T09:11:49;16.73;;;9.45;;
51883;SDS011;37915;53.254;6.598;2023-04-24T09:14:16;16.45;;;9.80;;
51883;SDS011;37915;53.254;6.598;2023-04-24T09:16:43;16.75;;;10.15;;
51883;SDS011;37915;53.254;6.598;2023-04-24T09:19:08;14.88;;;8.68;;
51883;SDS011;37915;53.254;6.598;2023-04-24T09:21:34;15.88;;;8.50;;
51883;SDS011;37915;53.254;6.598;2023-04-24T09:24:01;16.33;;;8.32;;
51883;SDS011;37915;53.254;6.598;2023-04-24T09:26:34;17.95;;;8.25;;
51883;SDS011;37915;53.254;6.598;2023-04-24T09:29:01;14.65;;;7.20;;
51883;SDS011;37915;53.254;6.598;2023-04-24T09:31:29;15.10;;;8.18;;
51883;SDS011;37915;53.254;6.598;2023-04-24T09:33:59;15.45;;;7.63;;
51883;SDS011;37915;53.254;6.598;2023-04-24T09:36:37;13.73;;;7.85;;
51883;SDS011;37915;53.254;6.598;2023-04-24T09:39:05;10.70;;;6.72;;
51883;SDS011;37915;53.254;6.598;2023-04-24T09:41:47;14.90;;;7.57;;
51883;SDS011;37915;53.254;6.598;2023-04-24T09:44:15;13.98;;;6.63;;
51883;SDS011;37915;53.254;6.598;2023-04-24T09:46:57;12.48;;;6.32;;
51883;SDS011;37915;53.254;6.598;2023-04-24T09:49:25;12.95;;;6.20;;
51883;SDS011;37915;53.254;6.598;2023-04-24T09:51:51;15.57;;;6.70;;
51883;SDS011;37915;53.254;6.598;2023-04-24T09:54:20;15.65;;;6.30;;
51883;SDS011;37915;53.254;6.598;2023-04-24T09:56:48;14.80;;;6.18;;
51883;SDS011;37915;53.254;6.598;2023-04-24T09:59:15;15.95;;;5.88;;
51883;SDS011;37915;53.254;6.598;2023-04-24T10:01:42;14.07;;;6.20;;
51883;SDS011;37915;53.254;6.598;2023-04-24T10:04:19;14.20;;;5.53;;
51883;SDS011;37915;53.254;6.598;2023-04-24T10:06:49;13.75;;;5.80;;
51883;SDS011;37915;53.254;6.598;2023-04-24T10:09:17;10.05;;;5.22;;
51883;SDS011;37915;53.254;6.598;2023-04-24T10:11:45;9.65;;;5.53;;
51883;SDS011;37915;53.254;6.598;2023-04-24T10:14:12;8.35;;;4.18;;
51883;SDS011;37915;53.254;6.598;2023-04-24T10:16:40;8.52;;;4.35;;
51883;SDS011;37915;53.254;6.598;2023-04-24T10:19:07;9.75;;;4.22;;
51883;SDS011;37915;53.254;6.598;2023-04-24T10:21:33;8.68;;;4.40;;
51883;SDS011;37915;53.254;6.598;2023-04-24T10:24:00;9.18;;;4.25;;
51883;SDS011;37915;53.254;6.598;2023-04-24T10:26:28;7.00;;;2.97;;
51883;SDS011;37915;53.254;6.598;2023-04-24T10:28:54;8.18;;;3.50;;
51883;SDS011;37915;53.254;6.598;2023-04-24T10:31:23;9.50;;;3.90;;
51883;SDS011;37915;53.254;6.598;2023-04-24T10:33:49;9.45;;;3.50;;
51883;SDS011;37915;53.254;6.598;2023-04-24T10:36:16;7.55;;;3.58;;
51883;SDS011;37915;53.254;6.598;2023-04-24T10:38:43;9.35;;;3.40;;
51883;SDS011;37915;53.254;6.598;2023-04-24T10:41:12;8.07;;;3.35;;
51883;SDS011;37915;53.254;6.598;2023-04-24T10:43:44;10.13;;;3.08;;
51883;SDS011;37915;53.254;6.598;2023-04-24T10:46:10;8.63;;;3.72;;
51883;SDS011;37915;53.254;6.598;2023-04-24T10:48:44;9.95;;;3.40;;
51883;SDS011;37915;53.254;6.598;2023-04-24T10:51:18;6.50;;;2.90;;
51883;SDS011;37915;53.254;6.598;2023-04-24T10:53:48;6.88;;;2.75;;
51883;SDS011;37915;53.254;6.598;2023-04-24T10:56:15;5.90;;;2.55;;
51883;SDS011;37915;53.254;6.598;2023-04-24T10:58:42;5.57;;;2.80;;
51883;SDS011;37915;53.254;6.598;2023-04-24T11:04:01;6.78;;;2.45;;
51883;SDS011;37915;53.254;6.598;2023-04-24T11:06:32;6.13;;;2.92;;
51883;SDS011;37915;53.254;6.598;2023-04-24T11:09:02;7.75;;;2.65;;
51883;SDS011;37915;53.254;6.598;2023-04-24T11:11:30;7.57;;;2.92;;
51883;SDS011;37915;53.254;6.598;2023-04-24T11:21:47;7.97;;;2.50;;
51883;SDS011;37915;53.254;6.598;2023-04-24T11:40:04;5.85;;;2.40;;
51883;SDS011;37915;53.254;6.598;2023-04-24T11:42:36;6.50;;;2.10;;
51883;SDS011;37915;53.254;6.598;2023-04-24T11:45:09;6.13;;;1.92;;
51883;SDS011;37915;53.254;6.598;2023-04-24T11:47:36;10.88;;;2.25;;
51883;SDS011;37915;53.254;6.598;2023-04-24T11:50:03;9.40;;;2.30;;
51883;SDS011;37915;53.254;6.598;2023-04-24T11:52:31;8.00;;;2.20;;
51883;SDS011;37915;53.254;6.598;2023-04-24T11:54:56;8.98;;;2.42;;
51883;SDS011;37915;53.254;6.598;2023-04-24T11:57:23;5.60;;;1.85;;
51883;SDS011;37915;53.254;6.598;2023-04-24T11:59:53;7.68;;;2.33;;
51883;SDS011;37915;53.254;6.598;2023-04-24T12:02:25;6.63;;;2.00;;
51883;SDS011;37915;53.254;6.598;2023-04-24T12:07:18;7.47;;;2.40;;
51883;SDS011;37915;53.254;6.598;2023-04-24T12:09:44;7.55;;;2.53;;
51883;SDS011;37915;53.254;6.598;2023-04-24T12:12:23;11.68;;;2.67;;
51883;SDS011;37915;53.254;6.598;2023-04-24T12:14:55;7.18;;;2.35;;
51883;SDS011;37915;53.254;6.598;2023-04-24T12:17:26;7.30;;;1.92;;
51883;SDS011;37915;53.254;6.598;2023-04-24T12:19:57;7.90;;;2.38;;
51883;SDS011;37915;53.254;6.598;2023-04-24T12:22:27;7.18;;;2.17;;
51883;SDS011;37915;53.254;6.598;2023-04-24T12:25:09;7.95;;;2.08;;
51883;SDS011;37915;53.254;6.598;2023-04-24T12:27:36;4.68;;;1.70;;
51883;SDS011;37915;53.254;6.598;2023-04-24T12:30:03;5.82;;;1.77;;
51883;SDS011;37915;53.254;6.598;2023-04-24T12:32:30;6.07;;;1.50;;
51883;SDS011;37915;53.254;6.598;2023-04-24T12:34:56;4.30;;;1.40;;
51883;SDS011;37915;53.254;6.598;2023-04-24T12:37:24;3.83;;;1.40;;
51883;SDS011;37915;53.254;6.598;2023-04-24T12:42:33;5.63;;;1.70;;
51883;SDS011;37915;53.254;6.598;2023-04-24T12:45:04;5.75;;;1.70;;
51883;SDS011;37915;53.254;6.598;2023-04-24T12:47:31;3.60;;;1.30;;
51883;SDS011;37915;53.254;6.598;2023-04-24T12:49:57;4.53;;;1.20;;
51883;SDS011;37915;53.254;6.598;2023-04-24T12:52:24;4.80;;;2.05;;
51883;SDS011;37915;53.254;6.598;2023-04-24T12:54:55;5.88;;;1.88;;
51883;SDS011;37915;53.254;6.598;2023-04-24T12:57:24;5.55;;;1.33;;
51883;SDS011;37915;53.254;6.598;2023-04-24T12:59:53;5.85;;;1.50;;
51883;SDS011;37915;53.254;6.598;2023-04-24T13:02:21;4.18;;;1.50;;
51883;SDS011;37915;53.254;6.598;2023-04-24T13:04:52;6.28;;;1.65;;
51883;SDS011;37915;53.254;6.598;2023-04-24T13:07:17;5.20;;;1.50;;
51883;SDS011;37915;53.254;6.598;2023-04-24T13:09:43;6.40;;;1.70;;
51883;SDS011;37915;53.254;6.598;2023-04-24T13:12:10;8.35;;;1.58;;
51883;SDS011;37915;53.254;6.598;2023-04-24T13:14:37;6.63;;;1.75;;
51883;SDS011;37915;53.254;6.598;2023-04-24T13:17:03;4.88;;;1.33;;
51883;SDS011;37915;53.254;6.598;2023-04-24T13:19:29;8.20;;;1.77;;
51883;SDS011;37915;53.254;6.598;2023-04-24T13:22:00;6.20;;;1.92;;
51883;SDS011;37915;53.254;6.598;2023-04-24T13:24:25;5.03;;;1.30;;
51883;SDS011;37915;53.254;6.598;2023-04-24T13:26:51;8.98;;;1.83;;
51883;SDS011;37915;53.254;6.598;2023-04-24T13:29:18;5.43;;;1.30;;
51883;SDS011;37915;53.254;6.598;2023-04-24T13:31:43;5.35;;;1.38;;
51883;SDS011;37915;53.254;6.598;2023-04-24T13:34:10;5.10;;;1.73;;
51883;SDS011;37915;53.254;6.598;2023-04-24T13:36:35;5.68;;;1.40;;
51883;SDS011;37915;53.254;6.598;2023-04-24T13:39:01;3.28;;;1.40;;
51883;SDS011;37915;53.254;6.598;2023-04-24T13:41:29;7.28;;;1.58;;
51883;SDS011;37915;53.254;6.598;2023-04-24T13:43:55;4.55;;;1.40;;
51883;SDS011;37915;53.254;6.598;2023-04-24T13:46:21;3.42;;;1.08;;
51883;SDS011;37915;53.254;6.598;2023-04-24T13:48:47;3.25;;;0.95;;
51883;SDS011;37915;53.254;6.598;2023-04-24T13:51:13;6.15;;;1.20;;
51883;SDS011;37915;53.254;6.598;2023-04-24T13:53:38;4.38;;;1.05;;
51883;SDS011;37915;53.254;6.598;2023-04-24T13:56:04;3.95;;;1.13;;
51883;SDS011;37915;53.254;6.598;2023-04-24T13:58:31;4.50;;;1.65;;
51883;SDS011;37915;53.254;6.598;2023-04-24T14:00:57;7.47;;;1.13;;
51883;SDS011;37915;53.254;6.598;2023-04-24T14:03:23;4.88;;;1.45;;
51883;SDS011;37915;53.254;6.598;2023-04-24T14:05:48;4.22;;;1.52;;
51883;SDS011;37915;53.254;6.598;2023-04-24T14:08:14;4.35;;;1.33;;
51883;SDS011;37915;53.254;6.598;2023-04-24T14:10:40;9.13;;;1.70;;
51883;SDS011;37915;53.254;6.598;2023-04-24T14:13:07;5.82;;;1.50;;
51883;SDS011;37915;53.254;6.598;2023-04-24T14:15:34;6.88;;;2.17;;
51883;SDS011;37915;53.254;6.598;2023-04-24T14:18:00;6.18;;;1.88;;
51883;SDS011;37915;53.254;6.598;2023-04-24T14:20:26;6.72;;;2.30;;
51883;SDS011;37915;53.254;6.598;2023-04-24T14:22:52;6.82;;;2.25;;
51883;SDS011;37915;53.254;6.598;2023-04-24T14:25:18;6.50;;;2.08;;
51883;SDS011;37915;53.254;6.598;2023-04-24T14:27:44;7.72;;;1.90;;
51883;SDS011;37915;53.254;6.598;2023-04-24T14:30:10;8.88;;;2.05;;
51883;SDS011;37915;53.254;6.598;2023-04-24T14:32:38;5.93;;;2.10;;
51883;SDS011;37915;53.254;6.598;2023-04-24T14:35:04;8.52;;;2.60;;
51883;SDS011;37915;53.254;6.598;2023-04-24T14:37:31;9.70;;;2.58;;
51883;SDS011;37915;53.254;6.598;2023-04-24T14:39:57;13.95;;;3.00;;
51883;SDS011;37915;53.254;6.598;2023-04-24T14:42:22;10.95;;;2.67;;
51883;SDS011;37915;53.254;6.598;2023-04-24T14:44:48;12.30;;;2.78;;
51883;SDS011;37915;53.254;6.598;2023-04-24T14:47:14;8.35;;;2.20;;
51883;SDS011;37915;53.254;6.598;2023-04-24T14:49:42;7.95;;;2.15;;
51883;SDS011;37915;53.254;6.598;2023-04-24T14:52:09;7.30;;;2.45;;
51883;SDS011;37915;53.254;6.598;2023-04-24T14:54:36;11.60;;;2.50;;
51883;SDS011;37915;53.254;6.598;2023-04-24T14:57:01;6.53;;;3.10;;
51883;SDS011;37915;53.254;6.598;2023-04-24T14:59:27;9.23;;;2.67;;
51883;SDS011;37915;53.254;6.598;2023-04-24T15:01:56;10.68;;;2.42;;
51883;SDS011;37915;53.254;6.598;2023-04-24T15:04:26;4.57;;;1.83;;
51883;SDS011;37915;53.254;6.598;2023-04-24T15:06:52;8.18;;;2.85;;
51883;SDS011;37915;53.254;6.598;2023-04-24T15:09:22;13.27;;;3.30;;
51883;SDS011;37915;53.254;6.598;2023-04-24T15:11:49;8.68;;;2.65;;